sensor_id;sensor_type;location;lat;lon;timestamp;pressure;altitude;pressure_sealevel;temperature;humidity
72570;BME280;60594;50.204;8.844;2023-05-17T00:01:41;100561.31;;;8.42;81.31
72570;BME280;60594;50.204;8.844;2023-05-17T00:04:08;100540.75;;;8.32;80.28
72570;BME280;60594;50.204;8.844;2023-05-17T00:06:34;100554.97;;;8.31;80.42
72570;BME280;60594;50.204;8.844;2023-05-17T00:09:01;100547.53;;;8.09;81.59
72570;BME280;60594;50.204;8.844;2023-05-17T00:11:28;100555.59;;;8.08;81.46
72570;BME280;60594;50.204;8.844;2023-05-17T00:13:55;100558.53;;;8.03;81.36
72570;BME280;60594;50.204;8.844;2023-05-17T00:16:21;100554.81;;;8.06;81.81
72570;BME280;60594;50.204;8.844;2023-05-17T00:18:48;100563.66;;;8.06;81.79
72570;BME280;60594;50.204;8.844;2023-05-17T00:21:14;100564.25;;;7.97;82.35
72570;BME280;60594;50.204;8.844;2023-05-17T00:23:41;100566.03;;;7.97;81.61
72570;BME280;60594;50.204;8.844;2023-05-17T00:26:07;100569.66;;;7.96;81.62
72570;BME280;60594;50.204;8.844;2023-05-17T00:28:34;100567.53;;;8.01;81.23
72570;BME280;60594;50.204;8.844;2023-05-17T00:31:00;100574.06;;;8.09;81.63
72570;BME280;60594;50.204;8.844;2023-05-17T00:33:27;100580.50;;;8.19;79.54
72570;BME280;60594;50.204;8.844;2023-05-17T00:35:53;100576.81;;;8.08;81.06
72570;BME280;60594;50.204;8.844;2023-05-17T00:38:19;100576.06;;;8.06;81.28
72570;BME280;60594;50.204;8.844;2023-05-17T00:40:48;100579.03;;;8.01;81.82
72570;BME280;60594;50.204;8.844;2023-05-17T00:43:15;100574.38;;;7.91;82.37
72570;BME280;60594;50.204;8.844;2023-05-17T00:45:41;100578.16;;;8.01;81.04
72570;BME280;60594;50.204;8.844;2023-05-17T00:48:08;100577.38;;;8.13;81.61
72570;BME280;60594;50.204;8.844;2023-05-17T00:50:34;100575.22;;;8.05;82.57
72570;BME280;60594;50.204;8.844;2023-05-17T00:53:01;100582.25;;;7.92;81.92
72570;BME280;60594;50.204;8.844;2023-05-17T00:55:28;100575.44;;;7.88;81.97
72570;BME280;60594;50.204;8.844;2023-05-17T00:57:55;100567.88;;;7.82;82.44
72570;BME280;60594;50.204;8.844;2023-05-17T01:00:22;100567.09;;;7.94;81.27
72570;BME280;60594;50.204;8.844;2023-05-17T01:02:49;100564.72;;;7.76;83.04
72570;BME280;60594;50.204;8.844;2023-05-17T01:05:15;100576.75;;;7.81;82.73
72570;BME280;60594;50.204;8.844;2023-05-17T01:07:42;100578.50;;;7.68;84.07
72570;BME280;60594;50.204;8.844;2023-05-17T01:10:09;100569.41;;;7.58;84.08
72570;BME280;60594;50.204;8.844;2023-05-17T01:12:49;100571.53;;;7.80;84.08
72570;BME280;60594;50.204;8.844;2023-05-17T01:15:24;100572.22;;;7.83;83.97
72570;BME280;60594;50.204;8.844;2023-05-17T01:17:58;100579.41;;;7.81;83.67
72570;BME280;60594;50.204;8.844;2023-05-17T01:20:30;100583.41;;;7.74;83.54
72570;BME280;60594;50.204;8.844;2023-05-17T01:23:12;100582.25;;;7.78;83.60
72570;BME280;60594;50.204;8.844;2023-05-17T01:26:06;100587.88;;;7.60;84.22
72570;BME280;60594;50.204;8.844;2023-05-17T01:28:36;100585.50;;;7.55;84.16
72570;BME280;60594;50.204;8.844;2023-05-17T01:31:04;100585.19;;;7.46;84.93
72570;BME280;60594;50.204;8.844;2023-05-17T01:33:31;100578.94;;;7.47;84.84
72570;BME280;60594;50.204;8.844;2023-05-17T01:35:57;100581.50;;;7.34;85.73
72570;BME280;60594;50.204;8.844;2023-05-17T01:38:24;100584.13;;;7.34;85.72
72570;BME280;60594;50.204;8.844;2023-05-17T01:40:57;100584.16;;;7.48;86.85
72570;BME280;60594;50.204;8.844;2023-05-17T01:43:40;100587.00;;;7.59;84.62
72570;BME280;60594;50.204;8.844;2023-05-17T01:46:19;100579.53;;;7.52;85.71
72570;BME280;60594;50.204;8.844;2023-05-17T01:51:23;100587.28;;;7.41;85.76
72570;BME280;60594;50.204;8.844;2023-05-17T01:53:56;100594.97;;;7.31;86.14
72570;BME280;60594;50.204;8.844;2023-05-17T01:56:32;100592.00;;;7.36;85.30
72570;BME280;60594;50.204;8.844;2023-05-17T01:59:01;100596.16;;;7.40;85.42
72570;BME280;60594;50.204;8.844;2023-05-17T02:01:30;100604.25;;;7.38;85.76
72570;BME280;60594;50.204;8.844;2023-05-17T02:03:57;100600.78;;;7.22;86.31
72570;BME280;60594;50.204;8.844;2023-05-17T02:06:24;100609.81;;;7.34;84.74
72570;BME280;60594;50.204;8.844;2023-05-17T02:08:50;100610.28;;;7.40;86.08
72570;BME280;60594;50.204;8.844;2023-05-17T02:11:17;100604.25;;;7.38;85.19
72570;BME280;60594;50.204;8.844;2023-05-17T02:13:43;100602.03;;;7.31;85.18
72570;BME280;60594;50.204;8.844;2023-05-17T02:16:09;100609.91;;;7.32;86.52
72570;BME280;60594;50.204;8.844;2023-05-17T02:18:36;100612.38;;;7.35;86.76
72570;BME280;60594;50.204;8.844;2023-05-17T02:21:03;100614.84;;;7.38;86.34
72570;BME280;60594;50.204;8.844;2023-05-17T02:23:30;100608.50;;;7.41;86.58
72570;BME280;60594;50.204;8.844;2023-05-17T02:25:56;100611.63;;;7.47;86.20
72570;BME280;60594;50.204;8.844;2023-05-17T02:28:22;100613.16;;;7.51;86.65
72570;BME280;60594;50.204;8.844;2023-05-17T02:30:49;100614.56;;;7.43;85.63
72570;BME280;60594;50.204;8.844;2023-05-17T02:33:16;100617.19;;;7.43;85.44
72570;BME280;60594;50.204;8.844;2023-05-17T02:35:42;100613.66;;;7.14;86.45
72570;BME280;60594;50.204;8.844;2023-05-17T02:38:08;100620.66;;;7.15;86.67
72570;BME280;60594;50.204;8.844;2023-05-17T02:40:35;100620.13;;;7.24;86.35
72570;BME280;60594;50.204;8.844;2023-05-17T02:43:02;100626.38;;;6.93;87.93
72570;BME280;60594;50.204;8.844;2023-05-17T02:45:29;100621.00;;;6.95;87.73
72570;BME280;60594;50.204;8.844;2023-05-17T02:47:55;100627.16;;;6.95;88.12
72570;BME280;60594;50.204;8.844;2023-05-17T02:50:22;100628.25;;;6.91;88.51
72570;BME280;60594;50.204;8.844;2023-05-17T02:52:48;100628.47;;;7.02;87.53
72570;BME280;60594;50.204;8.844;2023-05-17T02:55:15;100637.63;;;6.97;88.35
72570;BME280;60594;50.204;8.844;2023-05-17T02:57:41;100623.78;;;7.07;87.86
72570;BME280;60594;50.204;8.844;2023-05-17T03:00:08;100633.16;;;7.13;87.09
72570;BME280;60594;50.204;8.844;2023-05-17T03:02:35;100631.16;;;7.17;86.65
72570;BME280;60594;50.204;8.844;2023-05-17T03:05:02;100641.94;;;7.13;87.89
72570;BME280;60594;50.204;8.844;2023-05-17T03:07:28;100636.41;;;7.02;88.41
72570;BME280;60594;50.204;8.844;2023-05-17T03:09:55;100635.75;;;6.99;88.99
72570;BME280;60594;50.204;8.844;2023-05-17T03:12:23;100633.03;;;7.00;89.23
72570;BME280;60594;50.204;8.844;2023-05-17T03:14:49;100634.72;;;7.01;89.20
72570;BME280;60594;50.204;8.844;2023-05-17T03:17:16;100635.53;;;7.18;86.83
72570;BME280;60594;50.204;8.844;2023-05-17T03:19:42;100638.94;;;7.20;87.60
72570;BME280;60594;50.204;8.844;2023-05-17T03:22:09;100643.97;;;7.24;87.21
72570;BME280;60594;50.204;8.844;2023-05-17T03:24:36;100640.16;;;7.14;88.07
72570;BME280;60594;50.204;8.844;2023-05-17T03:27:02;100643.38;;;7.19;86.95
72570;BME280;60594;50.204;8.844;2023-05-17T03:29:29;100646.03;;;7.19;88.32
72570;BME280;60594;50.204;8.844;2023-05-17T03:31:55;100645.09;;;7.20;88.29
72570;BME280;60594;50.204;8.844;2023-05-17T03:34:22;100649.19;;;7.26;88.18
72570;BME280;60594;50.204;8.844;2023-05-17T03:36:48;100647.88;;;7.33;88.74
72570;BME280;60594;50.204;8.844;2023-05-17T03:39:15;100649.59;;;7.34;86.18
72570;BME280;60594;50.204;8.844;2023-05-17T03:41:42;100653.38;;;7.30;86.84
72570;BME280;60594;50.204;8.844;2023-05-17T03:44:09;100647.38;;;7.26;87.76
72570;BME280;60594;50.204;8.844;2023-05-17T03:46:36;100645.03;;;7.36;88.49
72570;BME280;60594;50.204;8.844;2023-05-17T03:49:03;100652.97;;;7.36;88.33
72570;BME280;60594;50.204;8.844;2023-05-17T03:51:32;100645.13;;;7.34;87.33
72570;BME280;60594;50.204;8.844;2023-05-17T03:54:00;100644.75;;;7.40;87.37
72570;BME280;60594;50.204;8.844;2023-05-17T03:56:29;100652.81;;;7.39;87.35
72570;BME280;60594;50.204;8.844;2023-05-17T03:58:56;100657.06;;;7.41;87.13
72570;BME280;60594;50.204;8.844;2023-05-17T04:01:23;100654.50;;;7.40;86.60
72570;BME280;60594;50.204;8.844;2023-05-17T04:03:49;100658.66;;;7.30;87.04
72570;BME280;60594;50.204;8.844;2023-05-17T04:06:16;100666.44;;;7.33;87.72
72570;BME280;60594;50.204;8.844;2023-05-17T04:08:42;100673.34;;;7.35;88.18
72570;BME280;60594;50.204;8.844;2023-05-17T04:11:09;100668.81;;;7.37;87.34
72570;BME280;60594;50.204;8.844;2023-05-17T04:13:41;100664.84;;;7.44;87.47
72570;BME280;60594;50.204;8.844;2023-05-17T04:16:08;100674.63;;;7.44;87.16
72570;BME280;60594;50.204;8.844;2023-05-17T04:18:37;100669.50;;;7.41;88.40
72570;BME280;60594;50.204;8.844;2023-05-17T04:21:04;100669.84;;;7.35;88.48
72570;BME280;60594;50.204;8.844;2023-05-17T04:23:33;100680.50;;;7.19;88.22
72570;BME280;60594;50.204;8.844;2023-05-17T04:26:00;100678.44;;;7.24;88.35
72570;BME280;60594;50.204;8.844;2023-05-17T04:28:27;100682.47;;;7.16;88.80
72570;BME280;60594;50.204;8.844;2023-05-17T04:30:55;100676.75;;;7.23;89.19
72570;BME280;60594;50.204;8.844;2023-05-17T04:33:22;100685.34;;;7.27;89.68
72570;BME280;60594;50.204;8.844;2023-05-17T04:35:50;100683.34;;;7.30;89.99
72570;BME280;60594;50.204;8.844;2023-05-17T04:38:20;100691.06;;;7.35;90.23
72570;BME280;60594;50.204;8.844;2023-05-17T04:40:46;100690.53;;;7.44;90.65
72570;BME280;60594;50.204;8.844;2023-05-17T04:43:13;100695.63;;;7.47;90.10
72570;BME280;60594;50.204;8.844;2023-05-17T04:45:41;100692.44;;;7.56;90.68
72570;BME280;60594;50.204;8.844;2023-05-17T04:48:07;100703.34;;;7.22;89.26
72570;BME280;60594;50.204;8.844;2023-05-17T04:50:34;100703.91;;;6.81;91.52
72570;BME280;60594;50.204;8.844;2023-05-17T04:53:01;100714.34;;;6.53;93.29
72570;BME280;60594;50.204;8.844;2023-05-17T04:55:29;100711.50;;;6.87;92.41
72570;BME280;60594;50.204;8.844;2023-05-17T04:57:57;100715.75;;;7.05;91.59
72570;BME280;60594;50.204;8.844;2023-05-17T05:00:25;100715.91;;;7.18;89.93
72570;BME280;60594;50.204;8.844;2023-05-17T05:02:58;100719.41;;;7.19;90.48
72570;BME280;60594;50.204;8.844;2023-05-17T05:05:25;100713.25;;;7.18;92.38
72570;BME280;60594;50.204;8.844;2023-05-17T05:07:52;100720.38;;;7.32;93.69
72570;BME280;60594;50.204;8.844;2023-05-17T05:10:19;100722.88;;;7.35;93.22
72570;BME280;60594;50.204;8.844;2023-05-17T05:12:45;100718.81;;;7.43;91.63
72570;BME280;60594;50.204;8.844;2023-05-17T05:15:12;100727.53;;;7.45;91.49
72570;BME280;60594;50.204;8.844;2023-05-17T05:17:41;100729.19;;;7.62;91.45
72570;BME280;60594;50.204;8.844;2023-05-17T05:20:08;100725.50;;;7.78;87.90
72570;BME280;60594;50.204;8.844;2023-05-17T05:22:35;100737.19;;;7.90;88.83
72570;BME280;60594;50.204;8.844;2023-05-17T05:25:02;100749.13;;;7.39;90.32
72570;BME280;60594;50.204;8.844;2023-05-17T05:27:30;100738.00;;;7.62;91.56
72570;BME280;60594;50.204;8.844;2023-05-17T05:29:56;100742.66;;;7.73;89.55
72570;BME280;60594;50.204;8.844;2023-05-17T05:32:24;100744.00;;;7.80;89.25
72570;BME280;60594;50.204;8.844;2023-05-17T05:34:50;100752.66;;;7.83;91.09
72570;BME280;60594;50.204;8.844;2023-05-17T05:37:17;100742.56;;;7.74;91.50
72570;BME280;60594;50.204;8.844;2023-05-17T05:39:45;100757.56;;;7.89;90.16
72570;BME280;60594;50.204;8.844;2023-05-17T05:42:11;100755.59;;;7.93;89.47
72570;BME280;60594;50.204;8.844;2023-05-17T05:44:39;100759.59;;;8.00;90.27
72570;BME280;60594;50.204;8.844;2023-05-17T05:47:05;100765.09;;;8.11;88.24
72570;BME280;60594;50.204;8.844;2023-05-17T05:49:32;100758.75;;;8.13;88.41
72570;BME280;60594;50.204;8.844;2023-05-17T05:51:58;100765.47;;;8.05;89.33
72570;BME280;60594;50.204;8.844;2023-05-17T05:54:27;100769.63;;;8.09;89.27
72570;BME280;60594;50.204;8.844;2023-05-17T05:56:53;100769.91;;;8.18;87.76
72570;BME280;60594;50.204;8.844;2023-05-17T05:59:20;100770.53;;;8.23;89.08
72570;BME280;60594;50.204;8.844;2023-05-17T06:01:47;100776.22;;;8.31;89.93
72570;BME280;60594;50.204;8.844;2023-05-17T06:04:13;100779.81;;;8.44;88.58
72570;BME280;60594;50.204;8.844;2023-05-17T06:06:40;100788.06;;;8.54;88.49
72570;BME280;60594;50.204;8.844;2023-05-17T06:09:06;100792.53;;;8.53;87.94
72570;BME280;60594;50.204;8.844;2023-05-17T06:11:32;100794.44;;;8.51;89.45
72570;BME280;60594;50.204;8.844;2023-05-17T06:14:00;100793.19;;;8.71;87.79
72570;BME280;60594;50.204;8.844;2023-05-17T06:16:26;100797.75;;;8.69;87.38
72570;BME280;60594;50.204;8.844;2023-05-17T06:18:53;100793.44;;;8.80;87.79
72570;BME280;60594;50.204;8.844;2023-05-17T06:21:19;100800.53;;;8.94;86.38
72570;BME280;60594;50.204;8.844;2023-05-17T06:23:46;100792.56;;;8.94;85.36
72570;BME280;60594;50.204;8.844;2023-05-17T06:26:12;100794.75;;;9.01;86.00
72570;BME280;60594;50.204;8.844;2023-05-17T06:28:39;100795.72;;;9.00;85.69
72570;BME280;60594;50.204;8.844;2023-05-17T06:31:05;100801.56;;;9.05;84.98
72570;BME280;60594;50.204;8.844;2023-05-17T06:33:31;100797.13;;;9.06;85.37
72570;BME280;60594;50.204;8.844;2023-05-17T06:35:58;100800.88;;;8.89;86.20
72570;BME280;60594;50.204;8.844;2023-05-17T06:38:24;100806.91;;;9.05;87.13
72570;BME280;60594;50.204;8.844;2023-05-17T06:40:52;100797.78;;;9.09;87.40
72570;BME280;60594;50.204;8.844;2023-05-17T06:43:20;100796.72;;;9.12;86.02
72570;BME280;60594;50.204;8.844;2023-05-17T06:45:46;100812.38;;;9.16;84.70
72570;BME280;60594;50.204;8.844;2023-05-17T06:48:14;100808.84;;;9.16;85.47
72570;BME280;60594;50.204;8.844;2023-05-17T06:50:40;100806.53;;;9.24;84.67
72570;BME280;60594;50.204;8.844;2023-05-17T06:53:07;100807.84;;;9.31;84.73
72570;BME280;60594;50.204;8.844;2023-05-17T06:55:33;100804.69;;;9.12;84.97
72570;BME280;60594;50.204;8.844;2023-05-17T06:58:00;100809.44;;;9.21;85.97
72570;BME280;60594;50.204;8.844;2023-05-17T07:00:26;100806.41;;;9.39;84.72
72570;BME280;60594;50.204;8.844;2023-05-17T07:02:53;100806.00;;;9.45;84.62
72570;BME280;60594;50.204;8.844;2023-05-17T07:05:21;100809.00;;;9.53;83.37
72570;BME280;60594;50.204;8.844;2023-05-17T07:07:49;100818.00;;;9.38;84.09
72570;BME280;60594;50.204;8.844;2023-05-17T07:10:15;100817.47;;;9.33;85.22
72570;BME280;60594;50.204;8.844;2023-05-17T07:12:42;100820.25;;;9.18;83.82
72570;BME280;60594;50.204;8.844;2023-05-17T07:15:09;100819.22;;;9.47;85.41
72570;BME280;60594;50.204;8.844;2023-05-17T07:17:36;100822.13;;;9.56;83.07
72570;BME280;60594;50.204;8.844;2023-05-17T07:20:02;100817.03;;;9.39;85.24
72570;BME280;60594;50.204;8.844;2023-05-17T07:22:31;100815.59;;;9.48;85.60
72570;BME280;60594;50.204;8.844;2023-05-17T07:24:57;100824.22;;;9.51;83.63
72570;BME280;60594;50.204;8.844;2023-05-17T07:27:24;100824.34;;;9.62;83.35
72570;BME280;60594;50.204;8.844;2023-05-17T07:29:50;100829.13;;;9.84;83.10
72570;BME280;60594;50.204;8.844;2023-05-17T07:32:17;100831.75;;;10.23;87.95
72570;BME280;60594;50.204;8.844;2023-05-17T07:34:43;100837.53;;;10.42;79.09
72570;BME280;60594;50.204;8.844;2023-05-17T07:37:11;100833.81;;;10.45;80.49
72570;BME280;60594;50.204;8.844;2023-05-17T07:39:37;100832.63;;;10.61;78.65
72570;BME280;60594;50.204;8.844;2023-05-17T07:42:05;100832.06;;;10.81;78.15
72570;BME280;60594;50.204;8.844;2023-05-17T07:44:31;100821.28;;;10.95;77.35
72570;BME280;60594;50.204;8.844;2023-05-17T07:46:58;100826.41;;;10.98;76.67
72570;BME280;60594;50.204;8.844;2023-05-17T07:49:25;100834.47;;;11.09;76.56
72570;BME280;60594;50.204;8.844;2023-05-17T07:51:52;100830.50;;;11.15;73.77
72570;BME280;60594;50.204;8.844;2023-05-17T07:54:24;100828.31;;;10.84;76.71
72570;BME280;60594;50.204;8.844;2023-05-17T07:56:52;100837.06;;;10.98;77.34
72570;BME280;60594;50.204;8.844;2023-05-17T07:59:21;100832.00;;;11.19;81.08
72570;BME280;60594;50.204;8.844;2023-05-17T08:01:47;100837.91;;;11.35;78.07
72570;BME280;60594;50.204;8.844;2023-05-17T08:04:14;100831.72;;;11.34;76.02
72570;BME280;60594;50.204;8.844;2023-05-17T08:06:41;100832.19;;;11.28;77.99
72570;BME280;60594;50.204;8.844;2023-05-17T08:09:08;100833.50;;;11.46;73.44
72570;BME280;60594;50.204;8.844;2023-05-17T08:11:36;100827.28;;;11.46;76.84
72570;BME280;60594;50.204;8.844;2023-05-17T08:14:02;100836.38;;;11.43;75.50
72570;BME280;60594;50.204;8.844;2023-05-17T08:16:30;100836.25;;;11.21;76.94
72570;BME280;60594;50.204;8.844;2023-05-17T08:18:56;100847.41;;;11.39;76.81
72570;BME280;60594;50.204;8.844;2023-05-17T08:21:23;100839.09;;;11.67;74.43
72570;BME280;60594;50.204;8.844;2023-05-17T08:23:49;100838.88;;;11.70;74.06
72570;BME280;60594;50.204;8.844;2023-05-17T08:26:16;100825.66;;;11.56;72.48
72570;BME280;60594;50.204;8.844;2023-05-17T08:28:43;100824.47;;;11.60;74.67
72570;BME280;60594;50.204;8.844;2023-05-17T08:31:10;100826.94;;;11.63;73.26
72570;BME280;60594;50.204;8.844;2023-05-17T08:33:37;100830.34;;;11.65;74.47
72570;BME280;60594;50.204;8.844;2023-05-17T08:36:04;100826.16;;;11.37;74.93
72570;BME280;60594;50.204;8.844;2023-05-17T08:38:33;100820.84;;;11.61;74.00
72570;BME280;60594;50.204;8.844;2023-05-17T08:41:00;100830.47;;;11.27;72.90
72570;BME280;60594;50.204;8.844;2023-05-17T08:43:28;100817.00;;;11.52;73.95
72570;BME280;60594;50.204;8.844;2023-05-17T08:45:56;100824.28;;;11.63;70.70
72570;BME280;60594;50.204;8.844;2023-05-17T08:48:27;100824.38;;;11.61;72.71
72570;BME280;60594;50.204;8.844;2023-05-17T08:50:56;100817.09;;;11.63;73.63
72570;BME280;60594;50.204;8.844;2023-05-17T08:53:27;100823.47;;;11.73;71.35
72570;BME280;60594;50.204;8.844;2023-05-17T08:55:58;100814.97;;;11.68;70.26
72570;BME280;60594;50.204;8.844;2023-05-17T08:58:27;100815.06;;;11.67;73.13
72570;BME280;60594;50.204;8.844;2023-05-17T09:00:57;100814.09;;;11.68;72.15
72570;BME280;60594;50.204;8.844;2023-05-17T09:03:25;100821.19;;;11.80;69.80
72570;BME280;60594;50.204;8.844;2023-05-17T09:05:52;100817.31;;;11.84;67.49
72570;BME280;60594;50.204;8.844;2023-05-17T09:08:20;100822.19;;;11.90;68.02
72570;BME280;60594;50.204;8.844;2023-05-17T09:10:48;100820.84;;;11.84;72.15
72570;BME280;60594;50.204;8.844;2023-05-17T09:13:15;100819.34;;;12.04;70.58
72570;BME280;60594;50.204;8.844;2023-05-17T09:15:46;100822.56;;;12.42;69.65
72570;BME280;60594;50.204;8.844;2023-05-17T09:18:13;100816.75;;;12.92;64.94
72570;BME280;60594;50.204;8.844;2023-05-17T09:20:39;100817.19;;;13.41;66.51
72570;BME280;60594;50.204;8.844;2023-05-17T09:23:09;100815.38;;;13.73;61.02
72570;BME280;60594;50.204;8.844;2023-05-17T09:25:46;100821.41;;;13.86;61.20
72570;BME280;60594;50.204;8.844;2023-05-17T09:28:12;100817.56;;;14.00;61.06
72570;BME280;60594;50.204;8.844;2023-05-17T09:30:39;100823.31;;;14.27;61.94
72570;BME280;60594;50.204;8.844;2023-05-17T09:33:08;100819.34;;;14.10;61.98
72570;BME280;60594;50.204;8.844;2023-05-17T09:35:35;100822.19;;;13.77;61.32
72570;BME280;60594;50.204;8.844;2023-05-17T09:38:09;100818.94;;;13.20;61.27
72570;BME280;60594;50.204;8.844;2023-05-17T09:40:40;100816.97;;;13.33;59.84
72570;BME280;60594;50.204;8.844;2023-05-17T09:43:10;100814.66;;;13.71;59.48
72570;BME280;60594;50.204;8.844;2023-05-17T09:45:37;100807.72;;;13.68;60.34
72570;BME280;60594;50.204;8.844;2023-05-17T09:48:15;100823.31;;;13.75;65.60
72570;BME280;60594;50.204;8.844;2023-05-17T09:50:45;100817.53;;;13.79;59.85
72570;BME280;60594;50.204;8.844;2023-05-17T09:55:48;100808.13;;;13.53;61.84
72570;BME280;60594;50.204;8.844;2023-05-17T09:58:14;100808.66;;;13.47;62.68
72570;BME280;60594;50.204;8.844;2023-05-17T10:00:42;100819.91;;;13.30;62.37
72570;BME280;60594;50.204;8.844;2023-05-17T10:03:10;100814.31;;;12.89;61.21
72570;BME280;60594;50.204;8.844;2023-05-17T10:05:41;100803.00;;;12.96;61.02
72570;BME280;60594;50.204;8.844;2023-05-17T10:08:12;100810.72;;;13.43;60.11
72570;BME280;60594;50.204;8.844;2023-05-17T10:10:40;100807.44;;;14.03;60.91
72570;BME280;60594;50.204;8.844;2023-05-17T10:13:09;100808.03;;;14.48;61.93
72570;BME280;60594;50.204;8.844;2023-05-17T10:15:37;100802.63;;;14.68;52.82
72570;BME280;60594;50.204;8.844;2023-05-17T10:18:06;100802.28;;;14.52;53.70
72570;BME280;60594;50.204;8.844;2023-05-17T10:20:35;100799.25;;;14.36;53.56
72570;BME280;60594;50.204;8.844;2023-05-17T10:23:03;100795.94;;;14.83;52.94
72570;BME280;60594;50.204;8.844;2023-05-17T10:25:31;100803.75;;;14.66;53.58
72570;BME280;60594;50.204;8.844;2023-05-17T10:27:58;100795.84;;;14.64;53.09
72570;BME280;60594;50.204;8.844;2023-05-17T10:30:27;100792.53;;;14.81;53.36
72570;BME280;60594;50.204;8.844;2023-05-17T10:32:54;100801.75;;;14.58;52.83
72570;BME280;60594;50.204;8.844;2023-05-17T10:35:20;100808.03;;;14.48;53.00
72570;BME280;60594;50.204;8.844;2023-05-17T10:37:48;100802.47;;;14.19;52.55
72570;BME280;60594;50.204;8.844;2023-05-17T10:40:15;100800.66;;;13.99;54.63
72570;BME280;60594;50.204;8.844;2023-05-17T10:42:46;100800.84;;;13.87;58.54
72570;BME280;60594;50.204;8.844;2023-05-17T10:45:19;100798.53;;;13.82;58.61
72570;BME280;60594;50.204;8.844;2023-05-17T10:47:46;100808.41;;;13.82;54.68
72570;BME280;60594;50.204;8.844;2023-05-17T10:50:23;100801.59;;;13.77;58.86
72570;BME280;60594;50.204;8.844;2023-05-17T10:52:50;100811.53;;;13.66;59.64
72570;BME280;60594;50.204;8.844;2023-05-17T10:55:22;100796.06;;;13.58;53.91
72570;BME280;60594;50.204;8.844;2023-05-17T10:58:18;100797.06;;;13.57;54.68
72570;BME280;60594;50.204;8.844;2023-05-17T11:00:51;100802.56;;;13.77;55.52
72570;BME280;60594;50.204;8.844;2023-05-17T11:03:25;100805.28;;;13.97;53.28
72570;BME280;60594;50.204;8.844;2023-05-17T11:08:36;100805.66;;;13.93;56.95
72570;BME280;60594;50.204;8.844;2023-05-17T11:11:10;100793.72;;;13.97;55.82
72570;BME280;60594;50.204;8.844;2023-05-17T11:16:15;100798.22;;;13.96;58.15
72570;BME280;60594;50.204;8.844;2023-05-17T11:18:47;100800.50;;;13.80;53.78
72570;BME280;60594;50.204;8.844;2023-05-17T11:21:14;100789.91;;;13.79;52.95
72570;BME280;60594;50.204;8.844;2023-05-17T11:23:42;100795.31;;;14.40;59.45
72570;BME280;60594;50.204;8.844;2023-05-17T11:26:21;100796.97;;;15.01;50.88
72570;BME280;60594;50.204;8.844;2023-05-17T11:28:59;100788.50;;;15.45;49.88
72570;BME280;60594;50.204;8.844;2023-05-17T11:31:31;100781.16;;;15.38;46.41
72570;BME280;60594;50.204;8.844;2023-05-17T11:33:57;100785.53;;;15.39;51.57
72570;BME280;60594;50.204;8.844;2023-05-17T11:36:25;100792.91;;;15.56;49.21
72570;BME280;60594;50.204;8.844;2023-05-17T11:41:37;100796.59;;;15.83;46.48
72570;BME280;60594;50.204;8.844;2023-05-17T11:44:07;100789.38;;;15.84;48.58
72570;BME280;60594;50.204;8.844;2023-05-17T11:46:36;100802.38;;;15.88;48.07
72570;BME280;60594;50.204;8.844;2023-05-17T11:49:05;100796.31;;;15.96;44.80
72570;BME280;60594;50.204;8.844;2023-05-17T11:51:32;100793.31;;;15.99;45.47
72570;BME280;60594;50.204;8.844;2023-05-17T11:53:59;100795.16;;;16.08;45.52
72570;BME280;60594;50.204;8.844;2023-05-17T11:56:34;100799.56;;;15.90;43.04
72570;BME280;60594;50.204;8.844;2023-05-17T11:59:02;100798.69;;;15.89;44.17
72570;BME280;60594;50.204;8.844;2023-05-17T12:01:41;100801.09;;;16.02;43.62
72570;BME280;60594;50.204;8.844;2023-05-17T12:04:08;100800.13;;;16.12;43.06
72570;BME280;60594;50.204;8.844;2023-05-17T12:06:35;100791.75;;;15.96;45.28
72570;BME280;60594;50.204;8.844;2023-05-17T12:09:01;100796.03;;;16.08;47.31
72570;BME280;60594;50.204;8.844;2023-05-17T12:11:28;100787.19;;;16.25;45.98
72570;BME280;60594;50.204;8.844;2023-05-17T12:13:55;100778.81;;;16.38;42.62
72570;BME280;60594;50.204;8.844;2023-05-17T12:16:22;100783.13;;;16.12;42.24
72570;BME280;60594;50.204;8.844;2023-05-17T12:18:50;100791.91;;;15.57;46.88
72570;BME280;60594;50.204;8.844;2023-05-17T12:21:17;100794.59;;;15.57;45.46
72570;BME280;60594;50.204;8.844;2023-05-17T12:23:45;100791.63;;;15.69;46.10
72570;BME280;60594;50.204;8.844;2023-05-17T12:26:16;100790.38;;;15.83;44.67
72570;BME280;60594;50.204;8.844;2023-05-17T12:28:44;100783.53;;;16.07;44.99
72570;BME280;60594;50.204;8.844;2023-05-17T12:31:16;100785.50;;;16.24;45.14
72570;BME280;60594;50.204;8.844;2023-05-17T12:33:44;100779.09;;;16.44;45.51
72570;BME280;60594;50.204;8.844;2023-05-17T12:36:13;100772.19;;;16.42;41.84
72570;BME280;60594;50.204;8.844;2023-05-17T12:38:40;100777.00;;;16.38;43.65
72570;BME280;60594;50.204;8.844;2023-05-17T12:41:09;100773.13;;;16.60;44.15
72570;BME280;60594;50.204;8.844;2023-05-17T12:43:38;100778.34;;;16.61;44.10
72570;BME280;60594;50.204;8.844;2023-05-17T12:46:11;100770.56;;;16.58;42.97
72570;BME280;60594;50.204;8.844;2023-05-17T12:48:39;100774.31;;;16.29;42.19
72570;BME280;60594;50.204;8.844;2023-05-17T12:53:40;100774.72;;;16.43;42.68
72570;BME280;60594;50.204;8.844;2023-05-17T12:56:08;100765.63;;;16.54;41.58
72570;BME280;60594;50.204;8.844;2023-05-17T12:58:39;100772.53;;;16.66;43.77
72570;BME280;60594;50.204;8.844;2023-05-17T13:01:06;100753.66;;;16.75;40.97
72570;BME280;60594;50.204;8.844;2023-05-17T13:03:35;100761.88;;;16.74;39.95
72570;BME280;60594;50.204;8.844;2023-05-17T13:06:04;100759.19;;;16.74;43.66
72570;BME280;60594;50.204;8.844;2023-05-17T13:08:31;100761.31;;;16.70;40.82
72570;BME280;60594;50.204;8.844;2023-05-17T13:11:12;100759.28;;;16.55;39.86
72570;BME280;60594;50.204;8.844;2023-05-17T13:13:39;100764.75;;;16.63;45.60
72570;BME280;60594;50.204;8.844;2023-05-17T13:16:06;100753.19;;;16.80;42.70